Time;durP1;ratioP1;P1;durP2;ratioP2;P2;SDS_P1;SDS_P2;PMS_P1;PMS_P2;Temp;Humidity;BMP_temperature;BMP_pressure;BME280_temperature;BME280_humidity;BME280_pressure;Samples;Min_cycle;Max_cycle;Signal;HPM_P1;HPM_P2
2023/05/05 00:02:11;;;;;;;0.00;0.00;;;;;;;14.23;67.59;99865.63;7361603;19;20007;-66
2023/05/05 00:04:37;;;;;;;0.00;0.00;;;;;;;14.22;67.41;99862.16;7360607;19;20003;-66
2023/05/05 00:07:02;;;;;;;0.10;0.10;;;;;;;14.21;67.42;99855.19;7357929;19;20045;-66
2023/05/05 00:09:28;;;;;;;0.10;0.10;;;;;;;14.16;68.09;99851.97;7360284;19;20014;-66
2023/05/05 00:11:54;;;;;;;0.08;0.08;;;;;;;14.20;67.61;99839.53;7359298;19;20015;-66
2023/05/05 00:14:19;;;;;;;0.00;0.00;;;;;;;14.19;67.67;99849.19;7358031;19;20018;-66
2023/05/05 00:16:45;;;;;;;0.00;0.00;;;;;;;14.18;68.09;99842.22;7361337;19;20022;-66
2023/05/05 00:19:11;;;;;;;0.00;0.00;;;;;;;14.18;68.05;99842.22;7357841;19;20780;-66
2023/05/05 00:21:36;;;;;;;0.00;0.00;;;;;;;14.16;68.20;99838.84;7360691;19;20025;-66
2023/05/05 00:24:02;;;;;;;0.10;0.10;;;;;;;14.15;68.07;99831.88;7361312;19;20010;-66
2023/05/05 00:26:27;;;;;;;0.10;0.10;;;;;;;14.14;68.12;99830.19;7359745;19;20355;-66
2023/05/05 00:28:53;;;;;;;0.00;0.00;;;;;;;14.04;68.30;99807.97;7358142;19;20002;-66
2023/05/05 00:31:18;;;;;;;0.00;0.00;;;;;;;14.14;68.15;99824.06;7359399;19;20006;-66
2023/05/05 00:33:43;;;;;;;0.10;0.10;;;;;;;14.11;68.30;99814.59;7359658;19;20822;-66
2023/05/05 00:36:09;;;;;;;0.00;0.00;;;;;;;14.14;68.47;99811.81;7359183;19;20352;-65
2023/05/05 00:38:34;;;;;;;0.03;0.03;;;;;;;14.11;68.07;99804.09;7358932;19;20118;-66
2023/05/05 00:41:00;;;;;;;0.00;0.00;;;;;;;14.13;68.30;99802.22;7358741;19;20030;-66
2023/05/05 00:43:26;;;;;;;0.00;0.00;;;;;;;14.12;68.67;99795.28;7358555;19;20603;-66
2023/05/05 00:46:00;;;;;;;0.00;0.00;;;;;;;14.16;66.81;99801.22;7357385;19;20021;-66
2023/05/05 00:48:28;;;;;;;0.10;0.10;;;;;;;14.14;68.21;99792.56;7357166;19;20377;-66
2023/05/05 00:50:53;;;;;;;0.00;0.00;;;;;;;14.14;68.45;99787.31;7358468;19;20095;-66
2023/05/05 00:53:19;;;;;;;0.00;0.00;;;;;;;14.09;68.42;99769.19;7357052;19;20074;-66
2023/05/05 00:55:45;;;;;;;0.00;0.00;;;;;;;14.14;68.10;99782.06;7357628;19;20415;-66
2023/05/05 00:58:12;;;;;;;0.03;0.03;;;;;;;14.12;68.23;99774.28;7359374;19;20034;-67
2023/05/05 01:00:37;;;;;;;0.00;0.00;;;;;;;14.13;68.42;99775.97;7356429;19;20015;-66
2023/05/05 01:03:04;;;;;;;0.05;0.05;;;;;;;14.14;68.46;99772.44;7357821;19;20145;-67
2023/05/05 01:05:41;;;;;;;0.00;0.00;;;;;;;14.17;67.62;99779.28;7359852;19;20048;-66
2023/05/05 01:08:31;;;;;;;0.00;0.00;;;;;;;14.18;66.93;99767.84;7358538;19;20014;-66
2023/05/05 01:11:25;;;;;;;0.10;0.10;;;;;;;14.19;67.12;99769.53;7357330;19;20042;-67
2023/05/05 01:14:10;;;;;;;0.10;0.10;;;;;;;14.18;67.64;99773.09;7256967;19;2004477;-66
2023/05/05 01:16:40;;;;;;;0.10;0.10;;;;;;;14.16;69.07;99780.22;7358577;19;20768;-66
2023/05/05 01:19:18;;;;;;;0.00;0.00;;;;;;;14.18;67.42;99773.94;7352898;19;20018;-66
2023/05/05 01:21:54;;;;;;;0.10;0.10;;;;;;;14.19;68.26;99774.78;7358458;19;20074;-66
2023/05/05 01:24:32;;;;;;;0.00;0.00;;;;;;;14.19;67.71;99770.41;7355473;19;20597;-66
2023/05/05 01:27:36;;;;;;;0.05;0.05;;;;;;;14.21;67.07;99768.56;7358403;19;20015;-66
2023/05/05 01:30:19;;;;;;;0.00;0.00;;;;;;;14.22;67.44;99770.25;7256261;19;2004523;-66
2023/05/05 01:32:50;;;;;;;0.00;0.00;;;;;;;14.22;68.40;99770.25;7355441;19;20015;-67
2023/05/05 01:35:25;;;;;;;0.00;0.00;;;;;;;14.23;67.82;99769.31;7357211;19;20007;-66
2023/05/05 01:38:12;;;;;;;0.10;0.10;;;;;;;14.26;67.37;99771.78;7357503;19;20082;-67
2023/05/05 01:40:55;;;;;;;;;;;;;;;14.27;64.97;99772.63;7357339;19;20602;-66
2023/05/05 01:43:22;;;;;;;0.00;0.00;;;;;;;14.25;67.31;99777.97;7363576;19;19932;-66
2023/05/05 01:45:48;;;;;;;0.10;0.10;;;;;;;14.25;67.38;99780.59;7363951;19;20025;-67
2023/05/05 01:48:17;;;;;;;0.05;0.05;;;;;;;14.26;66.78;99782.28;7364269;19;20078;-66
2023/05/05 01:50:45;;;;;;;0.10;0.10;;;;;;;14.23;67.83;99777.19;7362308;19;20029;-66
2023/05/05 01:53:12;;;;;;;0.00;0.00;;;;;;;14.24;67.54;99789.41;7362071;19;20404;-66
2023/05/05 01:55:38;;;;;;;0.00;0.00;;;;;;;14.21;68.11;99784.31;7363749;19;20462;-66
2023/05/05 01:58:06;;;;;;;0.10;0.10;;;;;;;14.24;67.54;99788.53;7353023;19;21092;-67
2023/05/05 02:00:33;;;;;;;0.10;0.10;;;;;;;14.13;68.48;99775.97;7361776;19;20018;-67
2023/05/05 02:03:03;;;;;;;0.00;0.00;;;;;;;14.25;68.32;99790.25;7363267;19;20018;-67
2023/05/05 02:05:31;;;;;;;0.00;0.00;;;;;;;14.24;68.24;99789.41;7360814;19;20018;-66
2023/05/05 02:07:59;;;;;;;0.10;0.10;;;;;;;14.25;67.99;99796.34;7362784;19;20030;-66
2023/05/05 02:10:25;;;;;;;0.00;0.00;;;;;;;14.25;68.61;99798.13;7360547;19;20015;-67
2023/05/05 02:12:52;;;;;;;0.00;0.00;;;;;;;14.26;68.07;99805.91;7361863;19;20011;-67
2023/05/05 02:15:20;;;;;;;0.05;0.05;;;;;;;14.27;67.67;99812.03;7361988;19;20412;-66
2023/05/05 02:17:47;;;;;;;0.10;0.10;;;;;;;14.27;68.30;99812.03;7360719;19;20007;-67
2023/05/05 02:20:14;;;;;;;0.00;0.00;;;;;;;14.27;67.91;99818.13;7358940;19;20085;-63
2023/05/05 02:22:40;;;;;;;0.00;0.00;;;;;;;14.25;68.01;99812.09;7362864;19;20019;-67
2023/05/05 02:25:06;;;;;;;0.10;0.10;;;;;;;14.24;68.03;99826.16;7359648;19;20047;-66
2023/05/05 02:27:34;;;;;;;0.03;0.03;;;;;;;14.27;68.03;99822.53;7362615;19;20039;-67
2023/05/05 02:30:13;;;;;;;0.00;0.00;;;;;;;14.28;67.09;99825.06;7361276;19;20031;-67
2023/05/05 02:32:44;;;;;;;0.00;0.00;;;;;;;14.19;67.99;99815.06;7362082;19;20017;-67
2023/05/05 02:35:26;;;;;;;0.00;0.00;;;;;;;14.27;66.54;99826.00;7359750;19;20014;-66
2023/05/05 02:38:00;;;;;;;0.05;0.05;;;;;;;14.24;67.64;99826.16;7362920;19;20006;-67
2023/05/05 02:40:29;;;;;;;0.03;0.03;;;;;;;14.23;67.81;99834.94;7359753;19;20011;-66
2023/05/05 02:42:57;;;;;;;0.00;0.00;;;;;;;14.19;67.83;99824.69;7359974;19;20021;-68
2023/05/05 02:45:25;;;;;;;0.10;0.10;;;;;;;14.22;67.59;99833.25;7360740;19;20002;-67
2023/05/05 02:47:51;;;;;;;0.10;0.10;;;;;;;14.21;67.46;99836.81;7363586;19;20044;-67
2023/05/05 02:50:17;;;;;;;0.00;0.00;;;;;;;14.15;67.58;99831.88;7360585;19;20010;-67
2023/05/05 02:52:43;;;;;;;0.00;0.00;;;;;;;14.05;67.42;99820.16;7359730;19;20479;-66
2023/05/05 02:55:09;;;;;;;0.00;0.00;;;;;;;14.20;66.91;99844.78;7359240;19;20015;-67
2023/05/05 02:57:34;;;;;;;0.00;0.00;;;;;;;14.18;67.46;99844.84;7356359;19;20010;-67
2023/05/05 03:00:09;;;;;;;0.00;0.00;;;;;;;14.22;67.04;99850.78;7362233;19;20006;-67
2023/05/05 03:02:58;;;;;;;0.03;0.03;;;;;;;14.21;65.60;99849.94;7359793;19;20002;-66
2023/05/05 03:05:29;;;;;;;0.08;0.08;;;;;;;14.20;66.11;99852.66;7351928;19;20371;-66
2023/05/05 03:08:02;;;;;;;0.10;0.10;;;;;;;14.18;66.79;99847.47;7354861;19;20014;-66
2023/05/05 03:10:38;;;;;;;0.00;0.00;;;;;;;14.17;66.08;99853.66;7360712;19;20117;-67
2023/05/05 03:13:08;;;;;;;0.00;0.00;;;;;;;14.15;66.49;99852.91;7360859;19;20007;-67
2023/05/05 03:15:44;;;;;;;0.10;0.10;;;;;;;14.15;65.98;99860.78;7359313;19;20021;-67
2023/05/05 03:18:11;;;;;;;0.08;0.08;;;;;;;14.11;66.51;99856.59;7360702;19;20010;-66
2023/05/05 03:20:39;;;;;;;0.10;0.10;;;;;;;14.12;66.37;99871.41;7351157;19;20102;-66
2023/05/05 03:23:05;;;;;;;0.10;0.10;;;;;;;14.08;66.43;99869.88;7361159;19;20039;-67
2023/05/05 03:25:42;;;;;;;0.10;0.10;;;;;;;13.71;65.84;99806.09;7359852;19;20385;-67
2023/05/05 03:28:07;;;;;;;0.05;0.05;;;;;;;14.06;66.53;99869.09;7361610;19;20024;-67
2023/05/05 03:30:33;;;;;;;0.10;0.10;;;;;;;14.06;66.37;99876.13;7360684;19;20010;-67
2023/05/05 03:32:58;;;;;;;0.10;0.10;;;;;;;14.05;66.42;99883.16;7360562;19;20010;-67
2023/05/05 03:35:23;;;;;;;0.00;0.00;;;;;;;14.05;66.71;99877.91;7358210;19;20819;-67
2023/05/05 03:37:49;;;;;;;0.00;0.00;;;;;;;14.06;66.65;99876.97;7362132;19;20007;-67
2023/05/05 03:40:14;;;;;;;0.00;0.00;;;;;;;14.08;66.23;99877.75;7361464;19;20014;-67
2023/05/05 03:42:40;;;;;;;0.10;0.10;;;;;;;14.06;66.35;99882.22;7359470;19;20035;-67
2023/05/05 03:45:06;;;;;;;0.00;0.00;;;;;;;14.09;66.01;99889.97;7359081;19;20014;-67
2023/05/05 03:47:31;;;;;;;0.10;0.10;;;;;;;14.09;66.47;99883.84;7361598;19;20038;-67
2023/05/05 03:49:57;;;;;;;0.10;0.10;;;;;;;14.06;66.51;99884.84;7361156;19;20014;-67
2023/05/05 03:52:22;;;;;;;0.00;0.00;;;;;;;14.06;66.22;99895.34;7359527;19;20536;-66
2023/05/05 03:54:47;;;;;;;0.10;0.10;;;;;;;14.06;66.40;99882.22;7358053;19;20002;-67
2023/05/05 03:57:13;;;;;;;0.05;0.05;;;;;;;14.04;66.78;99881.47;7357778;19;20018;-67
2023/05/05 03:59:38;;;;;;;0.10;0.10;;;;;;;14.05;66.36;99887.56;7360602;19;20362;-66
2023/05/05 04:02:04;;;;;;;0.05;0.05;;;;;;;14.04;66.51;99894.59;7360842;19;20030;-67
2023/05/05 04:04:29;;;;;;;0.10;0.10;;;;;;;14.05;66.69;99891.03;7358359;19;20015;-67
2023/05/05 04:06:54;;;;;;;0.00;0.00;;;;;;;14.06;66.28;99892.72;7361826;19;20812;-67
2023/05/05 04:09:20;;;;;;;0.10;0.10;;;;;;;14.08;66.88;99896.13;7358554;19;20010;-67
2023/05/05 04:11:45;;;;;;;0.00;0.00;;;;;;;14.09;66.22;99895.22;7360671;19;20014;-66
2023/05/05 04:14:11;;;;;;;0.00;0.00;;;;;;;14.09;66.47;99895.22;7359445;19;20018;-66
2023/05/05 04:16:36;;;;;;;0.00;0.00;;;;;;;14.10;66.63;99885.56;7361008;19;20887;-65
2023/05/05 04:19:02;;;;;;;0.00;0.00;;;;;;;14.07;67.14;99894.44;7358745;19;20010;-63
2023/05/05 04:21:28;;;;;;;0.00;0.00;;;;;;;14.01;68.02;99897.38;7359235;19;20006;-62
2023/05/05 04:23:53;;;;;;;0.00;0.00;;;;;;;13.91;68.65;99891.72;7359102;19;20010;-62
2023/05/05 04:26:18;;;;;;;0.10;0.10;;;;;;;13.86;69.02;99903.38;7360221;19;20127;-62
2023/05/05 04:28:44;;;;;;;0.00;0.00;;;;;;;13.80;69.47;99903.69;7358892;19;20049;-62
2023/05/05 04:31:09;;;;;;;0.00;0.00;;;;;;;13.71;70.36;99905.81;7360950;19;20010;-62
2023/05/05 04:33:35;;;;;;;0.10;0.10;;;;;;;13.65;69.29;99906.13;7359760;19;20018;-62
2023/05/05 04:36:00;;;;;;;0.05;0.05;;;;;;;13.62;69.25;99908.03;7358653;19;20006;-63
2023/05/05 04:38:26;;;;;;;0.00;0.00;;;;;;;13.57;70.07;99908.25;7360526;19;20018;-63
2023/05/05 04:40:51;;;;;;;0.00;0.00;;;;;;;13.53;70.44;99917.16;7360617;19;20018;-63
2023/05/05 04:43:16;;;;;;;0.00;0.00;;;;;;;13.49;70.19;99913.03;7361445;19;20018;-63
2023/05/05 04:45:54;;;;;;;0.05;0.05;;;;;;;13.48;69.32;99920.03;7357285;19;20034;-63
2023/05/05 04:48:19;;;;;;;0.10;0.10;;;;;;;13.43;70.67;99922.03;7360032;19;20042;-63
2023/05/05 04:50:45;;;;;;;0.00;0.00;;;;;;;13.42;69.82;99919.47;7359997;19;20014;-63
2023/05/05 04:53:11;;;;;;;0.00;0.00;;;;;;;13.39;70.61;99920.47;7358897;19;20548;-63
2023/05/05 04:55:38;;;;;;;0.10;0.10;;;;;;;13.42;69.79;99929.94;7360068;19;20018;-63
2023/05/05 04:58:03;;;;;;;0.00;0.00;;;;;;;13.38;70.17;99925.75;7359763;19;20049;-63
2023/05/05 05:00:28;;;;;;;0.00;0.00;;;;;;;13.38;70.80;99934.50;7359240;19;20585;-63
2023/05/05 05:02:54;;;;;;;0.00;0.00;;;;;;;13.39;70.27;99930.09;7355867;19;20432;-65
2023/05/05 05:05:20;;;;;;;0.00;0.00;;;;;;;13.35;71.49;99936.41;7358181;19;20015;-63
2023/05/05 05:07:46;;;;;;;0.08;0.08;;;;;;;13.29;70.35;99927.06;7357241;19;20010;-63
2023/05/05 05:10:11;;;;;;;0.00;0.00;;;;;;;13.21;70.90;99914.28;7358567;19;20018;-63
2023/05/05 05:12:37;;;;;;;0.00;0.00;;;;;;;13.39;71.17;99941.44;7357249;19;20042;-63
2023/05/05 05:15:02;;;;;;;0.00;0.00;;;;;;;13.39;69.19;99946.69;7359514;19;20018;-63
2023/05/05 05:17:29;;;;;;;0.00;0.00;;;;;;;13.42;69.26;99951.78;7355151;19;20010;-63
2023/05/05 05:19:55;;;;;;;0.10;0.10;;;;;;;13.41;71.02;99950.09;7358663;19;20011;-63
2023/05/05 05:22:20;;;;;;;0.10;0.10;;;;;;;13.43;71.23;99953.50;7357435;19;20014;-63
2023/05/05 05:24:46;;;;;;;0.10;0.10;;;;;;;13.44;70.88;99964.84;7356829;19;20019;-63
2023/05/05 05:27:11;;;;;;;0.03;0.03;;;;;;;13.40;71.66;99958.88;7355645;19;20014;-64
2023/05/05 05:29:37;;;;;;;0.00;0.00;;;;;;;13.32;70.61;99944.41;7357236;19;20736;-63
2023/05/05 05:32:02;;;;;;;0.10;0.10;;;;;;;13.49;71.61;99968.94;7357013;19;20017;-63
2023/05/05 05:34:27;;;;;;;0.00;0.00;;;;;;;13.50;70.80;99975.03;7357583;19;20017;-63
2023/05/05 05:36:53;;;;;;;0.10;0.10;;;;;;;13.52;70.57;99973.19;7357361;19;20006;-63
2023/05/05 05:39:18;;;;;;;0.00;0.00;;;;;;;13.54;71.16;99970.50;7358307;19;20509;-63
2023/05/05 05:41:44;;;;;;;0.00;0.00;;;;;;;13.53;71.25;99964.38;7357135;19;20639;-64
2023/05/05 05:44:09;;;;;;;0.00;0.00;;;;;;;13.56;71.39;99972.13;7357044;19;20068;-64
2023/05/05 05:46:34;;;;;;;0.00;0.00;;;;;;;13.57;70.90;99976.44;7358641;19;20039;-64
2023/05/05 05:49:00;;;;;;;0.00;0.00;;;;;;;13.59;70.48;99979.03;7355407;19;20112;-64
2023/05/05 05:51:26;;;;;;;0.00;0.00;;;;;;;13.59;70.88;99974.63;7356928;19;20088;-64
2023/05/05 05:53:52;;;;;;;0.00;0.00;;;;;;;13.59;71.11;99985.09;7351468;19;20022;-64
2023/05/05 05:56:17;;;;;;;0.05;0.05;;;;;;;13.58;71.57;99983.38;7358135;19;20010;-64
2023/05/05 05:58:44;;;;;;;0.00;0.00;;;;;;;13.60;71.65;99992.06;7345857;19;20023;-64
2023/05/05 06:01:09;;;;;;;0.10;0.10;;;;;;;13.60;71.98;99989.44;7355643;19;20027;-63
2023/05/05 06:03:35;;;;;;;0.00;0.00;;;;;;;13.62;70.89;99994.59;7354900;19;20422;-64
2023/05/05 06:06:00;;;;;;;0.00;0.00;;;;;;;13.61;70.69;99998.16;7353499;19;20602;-64
2023/05/05 06:08:26;;;;;;;0.10;0.10;;;;;;;13.60;70.72;99999.91;7354831;19;20025;-64
2023/05/05 06:10:51;;;;;;;0.00;0.00;;;;;;;13.60;70.44;100005.16;7356213;19;20015;-64
2023/05/05 06:13:17;;;;;;;0.05;0.05;;;;;;;13.55;70.45;100004.53;7352487;19;20364;-64
2023/05/05 06:15:42;;;;;;;0.00;0.00;;;;;;;13.58;70.69;100009.63;7354769;19;20654;-64
2023/05/05 06:18:07;;;;;;;0.00;0.00;;;;;;;13.57;71.38;100013.16;7353745;19;20048;-64
2023/05/05 06:20:33;;;;;;;0.10;0.10;;;;;;;13.57;70.72;100015.78;7355016;19;20018;-64
2023/05/05 06:22:58;;;;;;;0.03;0.03;;;;;;;13.59;70.98;100026.25;7353340;19;20019;-64
2023/05/05 06:25:24;;;;;;;0.00;0.00;;;;;;;13.59;71.29;100026.25;7354318;19;20493;-64
2023/05/05 06:27:49;;;;;;;0.08;0.08;;;;;;;13.60;70.49;100033.19;7354640;19;20636;-64
2023/05/05 06:30:15;;;;;;;0.08;0.08;;;;;;;13.59;70.70;100029.72;7360801;19;20022;-64
2023/05/05 06:32:40;;;;;;;0.08;0.08;;;;;;;13.66;70.17;100033.75;7360047;19;20031;-64
2023/05/05 06:35:06;;;;;;;0.10;0.10;;;;;;;13.68;70.13;100042.38;7361563;19;20006;-64
2023/05/05 06:37:32;;;;;;;0.00;0.00;;;;;;;13.70;70.60;100040.56;7358274;19;20030;-64
2023/05/05 06:39:57;;;;;;;0.00;0.00;;;;;;;13.74;70.41;100046.53;7353540;19;20002;-64
2023/05/05 06:42:22;;;;;;;0.08;0.08;;;;;;;13.46;70.12;99989.22;7357904;19;20003;-64
2023/05/05 06:44:48;;;;;;;0.10;0.10;;;;;;;13.86;70.21;100052.97;7357493;19;20364;-64
2023/05/05 06:47:13;;;;;;;0.03;0.03;;;;;;;13.88;70.29;100048.47;7360194;19;20034;-64
2023/05/05 06:49:39;;;;;;;0.00;0.00;;;;;;;13.89;69.91;100058.06;7356671;19;20014;-64
2023/05/05 06:52:05;;;;;;;0.10;0.10;;;;;;;13.93;70.10;100055.22;7359955;19;20027;-66
2023/05/05 06:54:30;;;;;;;0.10;0.10;;;;;;;13.96;70.08;100062.97;7358824;19;20025;-64
2023/05/05 06:56:55;;;;;;;0.00;0.00;;;;;;;14.00;70.09;100066.31;7361565;19;20011;-64
2023/05/05 06:59:21;;;;;;;0.10;0.10;;;;;;;14.04;70.50;100060.00;7359641;19;20377;-64
2023/05/05 07:01:46;;;;;;;0.00;0.00;;;;;;;14.10;70.44;100058.84;7360676;19;20014;-64
2023/05/05 07:04:12;;;;;;;0.03;0.03;;;;;;;14.15;70.57;100069.97;7359217;19;20042;-64
2023/05/05 07:06:37;;;;;;;0.10;0.10;;;;;;;14.21;69.88;100065.28;7360584;19;20014;-67
2023/05/05 07:09:03;;;;;;;0.00;0.00;;;;;;;14.30;70.41;100071.03;7362531;19;20034;-64
2023/05/05 07:11:28;;;;;;;0.10;0.10;;;;;;;14.35;70.26;100074.28;7360095;19;20693;-64
2023/05/05 07:13:54;;;;;;;0.00;0.00;;;;;;;14.41;70.21;100079.22;7359328;19;20574;-65
2023/05/05 07:16:19;;;;;;;0.00;0.00;;;;;;;14.51;69.99;100084.00;7359677;19;20011;-65
2023/05/05 07:18:45;;;;;;;0.00;0.00;;;;;;;14.60;69.62;100092.34;7355772;19;20579;-65
2023/05/05 07:21:10;;;;;;;0.03;0.03;;;;;;;14.65;69.47;100096.47;7357545;19;20629;-65
2023/05/05 07:23:36;;;;;;;0.00;0.00;;;;;;;14.70;69.16;100090.97;7360933;19;20010;-65
2023/05/05 07:26:02;;;;;;;0.10;0.10;;;;;;;14.76;68.91;100095.94;7358666;19;20428;-65
2023/05/05 07:28:28;;;;;;;0.10;0.10;;;;;;;14.82;68.89;100085.09;7360570;19;20070;-65
2023/05/05 07:30:53;;;;;;;0.10;0.10;;;;;;;14.86;69.10;100091.06;7358777;19;20491;-65
2023/05/05 07:33:19;;;;;;;0.10;0.10;;;;;;;14.86;68.76;100077.94;7360783;19;20020;-65
2023/05/05 07:35:44;;;;;;;0.00;0.00;;;;;;;14.88;68.89;100079.53;7358014;19;20074;-65
2023/05/05 07:38:10;;;;;;;0.00;0.00;;;;;;;14.99;68.21;100092.97;7359185;19;20038;-65
2023/05/05 07:40:35;;;;;;;0.05;0.05;;;;;;;14.99;68.25;100086.88;7356837;19;20026;-65
2023/05/05 07:43:01;;;;;;;0.00;0.00;;;;;;;15.12;67.63;100103.75;7359324;19;20771;-65
2023/05/05 07:45:27;;;;;;;0.03;0.03;;;;;;;15.18;67.71;100108.69;7359474;19;20018;-65
2023/05/05 07:47:53;;;;;;;0.10;0.10;;;;;;;15.12;67.46;100098.47;7360266;19;20018;-66
2023/05/05 07:50:19;;;;;;;0.10;0.10;;;;;;;15.23;68.07;100111.94;7359412;19;20010;-65
2023/05/05 07:52:44;;;;;;;0.05;0.05;;;;;;;15.25;68.48;100117.09;7361911;19;20047;-65
2023/05/05 07:55:10;;;;;;;0.00;0.00;;;;;;;15.28;67.88;100115.19;7358655;19;20299;-65
2023/05/05 07:57:35;;;;;;;0.10;0.10;;;;;;;15.31;67.81;100117.66;7357517;19;20014;-66
2023/05/05 08:00:01;;;;;;;0.08;0.08;;;;;;;15.35;67.85;100120.97;7357923;19;20377;-65
2023/05/05 08:02:27;;;;;;;0.00;0.00;;;;;;;15.40;67.92;100126.00;7357064;19;20022;-66
2023/05/05 08:04:52;;;;;;;0.10;0.10;;;;;;;15.45;67.61;100126.59;7360318;19;20006;-65
2023/05/05 08:07:17;;;;;;;0.00;0.00;;;;;;;15.52;67.21;100136.75;7351482;19;20027;-66
2023/05/05 08:09:43;;;;;;;0.10;0.10;;;;;;;15.47;67.08;100116.88;7357193;19;20665;-63
2023/05/05 08:12:08;;;;;;;0.10;0.10;;;;;;;15.65;66.82;100134.34;7359857;19;20003;-66
2023/05/05 08:14:35;;;;;;;0.10;0.10;;;;;;;15.71;66.89;100131.41;7359625;19;20054;-66
2023/05/05 08:17:00;;;;;;;0.00;0.00;;;;;;;15.76;67.15;100132.00;7360154;19;20031;-66
2023/05/05 08:19:26;;;;;;;0.03;0.03;;;;;;;15.83;66.69;100135.16;7359174;19;20010;-66
2023/05/05 08:21:51;;;;;;;0.10;0.10;;;;;;;15.88;66.73;100133.13;7360466;19;20006;-66
2023/05/05 08:24:17;;;;;;;0.10;0.10;;;;;;;15.99;66.79;100127.28;7358873;19;20018;-66
2023/05/05 08:26:42;;;;;;;0.00;0.00;;;;;;;16.08;66.79;100137.31;7358894;19;20018;-66
2023/05/05 08:29:08;;;;;;;0.00;0.00;;;;;;;16.19;65.97;100149.91;7359906;19;20016;-66
2023/05/05 08:31:38;;;;;;;0.10;0.10;;;;;;;16.28;66.36;100150.25;7357456;19;20006;-66
2023/05/05 08:34:04;;;;;;;0.10;0.10;;;;;;;16.40;65.70;100153.13;7357270;19;20020;-66
2023/05/05 08:36:30;;;;;;;0.10;0.10;;;;;;;16.43;65.08;100153.81;7358301;19;20018;-66
2023/05/05 08:38:55;;;;;;;0.10;0.10;;;;;;;16.55;65.03;100168.09;7359264;19;20025;-66
2023/05/05 08:41:21;;;;;;;0.10;0.10;;;;;;;16.60;64.89;100158.16;7358977;19;20022;-66
2023/05/05 08:43:48;;;;;;;0.10;0.10;;;;;;;16.67;64.87;100146.31;7357874;19;20838;-66
2023/05/05 08:46:13;;;;;;;0.10;0.10;;;;;;;16.75;65.05;100149.41;7358111;19;20010;-66
2023/05/05 08:48:41;;;;;;;0.10;0.10;;;;;;;16.85;64.60;100153.22;7357553;19;20467;-66
2023/05/05 08:51:08;;;;;;;0.10;0.10;;;;;;;16.95;64.24;100161.44;7357625;19;20019;-66
2023/05/05 08:53:57;;;;;;;0.10;0.10;;;;;;;17.11;64.89;100158.75;7355560;19;20018;-66
2023/05/05 08:56:28;;;;;;;0.10;0.10;;;;;;;17.21;63.73;100159.06;7357983;19;20050;-66
2023/05/05 08:58:55;;;;;;;0.10;0.10;;;;;;;17.19;63.98;100153.91;7357098;19;20499;-66
2023/05/05 09:01:22;;;;;;;0.10;0.10;;;;;;;17.26;63.43;100155.22;7357520;19;20014;-66
2023/05/05 09:03:48;;;;;;;0.10;0.10;;;;;;;17.42;63.25;100167.50;7358353;19;20702;-66
2023/05/05 09:06:13;;;;;;;0.10;0.10;;;;;;;17.22;63.25;100127.31;7355537;19;20077;-66
2023/05/05 09:08:39;;;;;;;0.10;0.10;;;;;;;17.55;63.57;100168.47;7358003;19;20431;-66
2023/05/05 09:11:05;;;;;;;0.00;0.00;;;;;;;17.64;63.87;100165.31;7355337;19;20045;-66
2023/05/05 09:13:31;;;;;;;0.10;0.10;;;;;;;17.78;62.64;100175.88;7357437;19;20011;-66
2023/05/05 09:15:57;;;;;;;0.05;0.05;;;;;;;17.91;62.08;100173.34;7355940;19;20013;-66
2023/05/05 09:18:23;;;;;;;0.10;0.10;;;;;;;18.01;61.78;100178.91;7358859;19;20006;-66
2023/05/05 09:20:48;;;;;;;0.10;0.10;;;;;;;18.05;61.83;100164.59;7355487;19;20007;-66
2023/05/05 09:23:16;;;;;;;0.10;0.10;;;;;;;18.15;61.63;100165.72;7358151;19;20010;-66
2023/05/05 09:25:45;;;;;;;;;;;;;;;18.31;62.52;100174.38;7357563;19;20019;-66
2023/05/05 09:28:16;;;;;;;0.10;0.10;;;;;;;18.32;61.20;100177.84;7357735;19;20459;-68
2023/05/05 09:30:43;;;;;;;0.10;0.10;;;;;;;18.41;60.57;100178.13;7357158;19;20006;-66
2023/05/05 09:33:09;;;;;;;0.10;0.10;;;;;;;18.50;60.75;100191.69;7357633;19;20010;-67
2023/05/05 09:35:52;;;;;;;0.10;0.10;;;;;;;18.65;60.96;100182.75;7356287;19;20010;-66
2023/05/05 09:38:18;;;;;;;0.10;0.10;;;;;;;18.69;60.49;100181.66;7357614;19;20699;-66
2023/05/05 09:40:53;;;;;;;0.05;0.05;;;;;;;18.77;60.60;100165.31;7356846;19;20039;-66
2023/05/05 09:43:21;;;;;;;0.10;0.10;;;;;;;18.92;59.19;100182.81;7355799;19;20002;-66
2023/05/05 09:45:49;;;;;;;0.10;0.10;;;;;;;19.02;58.77;100189.22;7355873;19;20035;-66
2023/05/05 09:48:29;;;;;;;0.10;0.10;;;;;;;19.21;59.73;100182.66;7356420;19;20078;-66
2023/05/05 09:50:55;;;;;;;0.10;0.10;;;;;;;19.18;59.12;100179.28;7357015;19;20355;-66
2023/05/05 09:53:22;;;;;;;0.00;0.00;;;;;;;19.35;58.14;100177.31;7355525;19;20051;-66
2023/05/05 09:55:55;;;;;;;0.10;0.10;;;;;;;19.49;57.80;100182.53;7358320;19;20778;-66
2023/05/05 09:58:22;;;;;;;0.10;0.10;;;;;;;19.56;58.10;100167.06;7356681;19;20046;-67
2023/05/05 10:00:48;;;;;;;0.10;0.10;;;;;;;19.68;57.38;100176.84;7354945;19;20891;-66
2023/05/05 10:03:15;;;;;;;0.10;0.10;;;;;;;19.85;58.66;100173.88;7359590;19;20018;-66
2023/05/05 10:05:59;;;;;;;0.10;0.10;;;;;;;20.20;59.73;100167.91;7361349;19;20010;-66
2023/05/05 10:08:30;;;;;;;0.10;0.10;;;;;;;20.68;57.48;100183.91;7363859;19;20823;-66
2023/05/05 10:11:02;;;;;;;0.00;0.00;;;;;;;20.93;55.72;100167.91;7362971;19;20459;-67
2023/05/05 10:13:28;;;;;;;0.10;0.10;;;;;;;21.21;54.43;100166.66;7363240;19;20070;-67
2023/05/05 10:15:55;;;;;;;0.10;0.10;;;;;;;21.71;52.43;100171.75;7362798;19;20010;-67
2023/05/05 10:18:24;;;;;;;0.10;0.10;;;;;;;22.12;51.66;100178.34;7362600;19;20516;-66
2023/05/05 10:20:56;;;;;;;0.00;0.00;;;;;;;22.54;52.15;100182.88;7352748;19;20054;-67
2023/05/05 10:23:23;;;;;;;0.15;0.15;;;;;;;22.71;49.26;100186.00;7362174;19;20014;-66
2023/05/05 10:25:54;;;;;;;0.08;0.08;;;;;;;22.92;49.88;100189.59;7363245;19;20039;-67
2023/05/05 10:28:31;;;;;;;0.10;0.10;;;;;;;23.13;50.88;100180.78;7363601;19;20466;-67
2023/05/05 10:30:58;;;;;;;;;;;;;;;23.32;53.44;100180.94;7364387;19;20014;-67
2023/05/05 10:33:40;;;;;;;0.10;0.10;;;;;;;23.36;49.49;100181.50;7362256;19;19954;-65
2023/05/05 10:36:06;;;;;;;0.10;0.10;;;;;;;23.31;47.29;100179.22;7362329;19;20101;-67
2023/05/05 10:38:33;;;;;;;0.10;0.10;;;;;;;23.26;47.02;100186.75;7362434;19;20101;-66
2023/05/05 10:41:00;;;;;;;0.10;0.10;;;;;;;23.21;48.97;100180.97;7362312;19;20023;-67
2023/05/05 10:43:26;;;;;;;0.10;0.10;;;;;;;23.34;46.09;100178.13;7360543;19;20022;-66
2023/05/05 10:45:53;;;;;;;0.10;0.10;;;;;;;23.45;46.71;100181.59;7363241;19;20010;-67
2023/05/05 10:48:41;;;;;;;0.10;0.10;;;;;;;23.71;47.08;100189.19;7360652;19;20345;-66
2023/05/05 10:51:31;;;;;;;0.10;0.10;;;;;;;23.93;48.07;100189.06;7358870;19;20143;-66
2023/05/05 10:54:07;;;;;;;0.10;0.10;;;;;;;24.26;46.58;100195.09;7362320;19;20010;-66
2023/05/05 10:56:34;;;;;;;0.10;0.10;;;;;;;24.47;44.41;100185.19;7362012;19;20011;-66
2023/05/05 10:59:00;;;;;;;0.10;0.10;;;;;;;24.73;44.39;100190.03;7361680;19;20348;-66
2023/05/05 11:01:33;;;;;;;0.03;0.03;;;;;;;25.07;45.56;100188.69;7359658;19;20035;-67
2023/05/05 11:04:18;;;;;;;0.10;0.10;;;;;;;25.27;45.07;100172.66;7361512;19;20014;-66
2023/05/05 11:07:08;;;;;;;0.05;0.05;;;;;;;25.56;45.64;100189.50;7363066;19;20353;-67
2023/05/05 11:09:37;;;;;;;0.10;0.10;;;;;;;25.60;41.79;100169.50;7360315;19;20014;-67
2023/05/05 11:12:05;;;;;;;0.00;0.00;;;;;;;26.06;41.19;100185.72;7359194;19;20021;-66
2023/05/05 11:14:31;;;;;;;0.00;0.00;;;;;;;26.25;42.10;100179.44;7360441;19;20015;-66
2023/05/05 11:16:56;;;;;;;0.10;0.10;;;;;;;26.52;40.76;100186.66;7361857;19;20493;-66
2023/05/05 11:19:41;;;;;;;0.10;0.10;;;;;;;26.94;42.76;100186.94;7361877;19;20778;-66
2023/05/05 11:22:06;;;;;;;0.10;0.10;;;;;;;27.06;37.65;100184.84;7360153;19;20002;-67
2023/05/05 11:24:32;;;;;;;0.10;0.10;;;;;;;27.29;37.42;100190.63;7362172;19;20088;-65
2023/05/05 11:26:57;;;;;;;0.03;0.03;;;;;;;27.53;38.04;100176.56;7359416;19;20014;-66
2023/05/05 11:29:23;;;;;;;0.00;0.00;;;;;;;27.68;36.37;100167.78;7361924;19;20014;-67
2023/05/05 11:32:11;;;;;;;0.00;0.00;;;;;;;27.98;40.02;100176.38;7359433;19;20018;-66
2023/05/05 11:34:47;;;;;;;0.00;0.00;;;;;;;28.01;39.52;100167.97;7361102;19;20014;-67